Lamoille, NV (89828)

6:33 AM PST on January 18, 2017 (GMT -0800)
KNVSPRIN8 | | Change Station

Elev 5479 ft 40.75 °N, 115.58 °W | Updated 3 minutes ago

Partly Cloudy
Partly Cloudy
0.9 °F
Feels Like 1 °F
N
1.6
Wind Variable Wind from NE
Gusts 1.6 mph

Today
High -- | Low -- °F
--% Chance of Precip.
Yesterday
High -- | Low -- °F
Precip. -- in
Pressure 30.33 in
Visibility 10.0 miles
Clouds Clear
Windchill 1 °F
Dew Point -2 °F
Humidity 89%
Rainfall 0.00 in
Snow Depth Not available.
7:02 AM 4:43 PM
Waning Gibbous, 63% visible
METAR KEKO 181356Z AUTO 09005KT 10SM CLR M14/M18 A3012 RMK AO2 SLP271 T11441178
Pressure 30.33 in
Visibility 10.0 miles
Clouds Clear
Windchill 1 °F
Dew Point -2 °F
Humidity 89%
Rainfall 0.00 in
Snow Depth Not available.
7:02 AM 4:43 PM
Waning Gibbous, 63% visible
METAR KEKO 181356Z AUTO 09005KT 10SM CLR M14/M18 A3012 RMK AO2 SLP271 T11441178

Get Your Daily Forecast Email!

Thanks for signing up!

Be on the lookout for a verification email in your inbox.

You'll start receiving the daily forecast at 8 AM.

×

10-Day Weather Forecast

Almanac

Astronomy

Jan. 18, 2017 Rise Set
Actual Time
Civil Twilight
Nautical Twilight
Astronomical Twilight
Moon
Length of Visible Light
Length of Day
Tomorrow will be .
, % of the Moon is Illuminated

Today's Extremes

State Highs State Lows

Community

WunderPhotos

Upload Photos

1,962,540 photos uploaded!

WunderBlog® & News

Nearby

Air Quality

  Air Quality AQ Index Pollutant
Not available.

Snow Depth

Station Depth Elevation

Earthquake Activity

City Distance Mag. Time & Date
Minimum magnitude displayed is 2.5.

Coastal Water Temperatures

Place Temperature

Stations

Nearby Weather Stations

Station Location Temp. Windchill Dew Point Humidity Wind Precip. Elev Updated Type
                   

Watches & Warnings

Winter Weather Advisory
Issued: 2:57 AM PST Jan. 18, 2017 – National Weather Service

... Winter Weather Advisory now in effect from 4 PM this afternoon
to 4 PM PST Thursday...

* snow accumulation... 3 to 6 inches valley, 6 to 11 inches
mountains.

* Impacts... main impacts will be to travel along Interstate 80,
Eureka Highway and LaMoille Highway, especially summits. Icy
spots and poor visibility will make travel difficult at times.

* For a detailed view of the hazard area, visit
http://www.Wrh.NOAA.Gov/map.

Precautionary/preparedness actions...

A Winter Weather Advisory means that travel difficulties are
expected due to wintry conditions. Be prepared for slippery roads
and limited visibilities, and use caution while driving. For the
latest Road conditions call 511 or visit http://www.Nvroads.Com.





Hydrologic Statement
Issued: 3:35 AM PST Jan. 18, 2017 – National Weather Service

Forecast information for
LaMoille creek above LaMoille.
* At 3:00 am Wednesday the stage was 4.0 feet.
* Flood stage is 4.8 feet.
* Minor flooding is forecast.